• Join FlightAware (Why Join?)
  • Login
  • US Flag 
12:56PM EST


 

Airport Tracker/Info


-or-


 

Live Flight TrackerFlight Track Log ✈ FDX1235 ✈ 10-May-2013 ✈ KBDL - KMEM

Flight Track Log - Related Links

Times and Time Zones

All times are in EDT time to prevent confusion due to time zone crossing. See the FDX1235 flight status page for this flight to view local times or setup timezone preferences in your user account.

Time Position Orientation Groundspeed Altitude Reporting Facility
EDT Latitude Longitude Course Direction KTS MPH feet Rate Location/Type
09:54PM 41.9228 -72.6772 188° South 171 197 800  Level Boston Center
09:55PM 41.9083 -72.6800 188° South 143 165 2,200 1,920 Climbing Boston Center
09:55PM 41.9061 -72.7161 265° West 182 209 3,000 1,680 Climbing Boston Center
09:56PM 41.9164 -72.7636 286° West 261 300 3,900 3,120 Climbing Boston Center
09:57PM 41.9831 -72.8003 338° Northwest 285 328 7,700 2,280 Climbing Boston Center
10:03PM 42.2500 -73.3620 338° Northwest 20,700 2,160 Climbing FlightAware
10:04PM 42.2390 -73.4900 263° West 22,700 2,100 Climbing FlightAware
10:04PM 42.2300 -73.5920 263° West 24,100 2,100 Climbing FlightAware
10:05PM 42.2200 -73.7050 263° West 25,700 2,100 Climbing FlightAware
10:07PM 42.1831 -74.1012 263° West 31,000 2,100 Climbing FlightAware ADS-B
10:08PM 42.1720 -74.2230 263° West 32,700 1,980 Climbing FlightAware
10:09PM 42.1635 -74.3085 262° West 414 476 33,700 1,320 Climbing FlightAware ADS-B
10:09PM 42.1561 -74.3859 263° West 408 470 34,000 240 Climbing FlightAware ADS-B
10:10PM 42.1485 -74.4626 262° West 415 478 34,000  Level FlightAware ADS-B
10:10PM 42.1405 -74.5450 263° West 403 464 34,000  Level FlightAware ADS-B
10:11PM 42.1333 -74.6216 263° West 412 474 34,000  Level FlightAware ADS-B
10:11PM 42.1261 -74.6990 263° West 401 461 34,000  Level FlightAware ADS-B
10:12PM 42.1185 -74.7743 262° West 401 461 34,000  Level FlightAware ADS-B
10:12PM 42.1099 -74.8598 262° West 399 459 34,000  Level FlightAware ADS-B
10:13PM 42.1020 -74.9379 262° West 395 455 34,000  Level FlightAware ADS-B
10:13PM 42.0939 -75.0146 262° West 408 470 34,000  Level FlightAware ADS-B
10:14PM 42.0843 -75.1092 262° West 409 471 34,000  Level FlightAware ADS-B
10:15PM 42.0761 -75.1880 262° West 411 473 34,000  Level FlightAware ADS-B
10:15PM 42.0663 -75.2653 260° West 406 467 34,000  Level FlightAware ADS-B
10:16PM 42.0464 -75.3495 252° West 398 458 34,000  Level FlightAware ADS-B
10:16PM 42.0170 -75.4298 244° Southwest 397 457 34,000  Level FlightAware ADS-B
10:17PM 41.9884 -75.4985 241° Southwest 405 466 34,000  Level FlightAware ADS-B
10:17PM 41.9590 -75.5693 241° Southwest 406 467 34,000  Level FlightAware ADS-B
10:18PM 41.9300 -75.6380 240° Southwest 34,000  Level FlightAware
10:19PM 41.8983 -75.7155 241° Southwest 399 459 34,000  Level FlightAware ADS-B
10:19PM 41.8704 -75.7827 241° Southwest 404 465 34,000  Level FlightAware ADS-B
10:20PM 41.8426 -75.8496 241° Southwest 406 467 34,000  Level FlightAware ADS-B
10:20PM 41.8128 -75.9210 241° Southwest 404 465 34,000  Level FlightAware ADS-B
10:21PM 41.7851 -75.9869 241° Southwest 397 457 34,000  Level FlightAware ADS-B
10:21PM 41.7582 -76.0515 241° Southwest 389 448 34,000  Level FlightAware ADS-B
10:22PM 41.7309 -76.1164 241° Southwest 403 464 34,000  Level FlightAware ADS-B
10:22PM 41.7036 -76.1809 240° Southwest 397 457 34,000  Level FlightAware ADS-B
10:23PM 41.6725 -76.2547 241° Southwest 407 468 34,000  Level FlightAware ADS-B
10:23PM 41.6449 -76.3201 241° Southwest 415 478 34,000  Level FlightAware ADS-B
10:24PM 41.6167 -76.3864 240° Southwest 395 455 34,000  Level FlightAware ADS-B
10:24PM 41.5886 -76.4529 241° Southwest 409 471 34,000  Level FlightAware ADS-B
10:25PM 41.5601 -76.5193 240° Southwest 398 458 34,000  Level FlightAware ADS-B
10:25PM 41.5304 -76.5891 240° Southwest 394 453 34,000  Level FlightAware ADS-B
10:26PM 41.4996 -76.6611 240° Southwest 405 466 34,000  Level FlightAware ADS-B
10:26PM 41.4710 -76.7276 240° Southwest 408 470 34,000  Level FlightAware ADS-B
10:27PM 41.4425 -76.7944 240° Southwest 403 464 34,000  Level FlightAware ADS-B
10:27PM 41.4113 -76.8672 240° Southwest 402 463 34,000  Level FlightAware ADS-B
10:28PM 41.3816 -76.9354 240° Southwest 414 476 34,000  Level FlightAware ADS-B
10:28PM 41.3507 -77.0066 240° Southwest 406 467 34,000  Level FlightAware ADS-B
10:29PM 41.3211 -77.0748 240° Southwest 404 465 34,000  Level FlightAware ADS-B
10:29PM 41.2919 -77.1418 240° Southwest 402 463 34,000  Level FlightAware ADS-B
10:30PM 41.2621 -77.2104 240° Southwest 407 468 34,000  Level FlightAware ADS-B
10:31PM 41.2350 -77.2710 239° Southwest 34,000  Level FlightAware
10:31PM 41.2150 -77.3182 241° Southwest 412 474 34,000  Level FlightAware ADS-B
10:31PM 41.1783 -77.4018 240° Southwest 413 475 34,000  Level FlightAware ADS-B
10:32PM 41.1520 -77.4610 239° Southwest 34,000  Level FlightAware
10:32PM 41.1442 -77.4797 241° Southwest 408 470 34,000  Level FlightAware ADS-B
10:33PM 41.1160 -77.5430 239° Southwest 34,000  Level FlightAware
10:33PM 41.1055 -77.5671 240° Southwest 411 473 34,000  Level FlightAware ADS-B
10:33PM 41.0800 -77.6250 240° Southwest 34,000  Level FlightAware
10:34PM 41.0497 -77.6934 240° Southwest 405 466 34,000  Level FlightAware ADS-B
10:34PM 41.0125 -77.7774 240° Southwest 407 468 34,000  Level FlightAware ADS-B
10:35PM 40.9560 -77.9040 239° Southwest 34,000  Level FlightAware
10:36PM 40.9130 -77.9990 239° Southwest 34,000  Level FlightAware
10:37PM 40.8700 -78.0870 237° Southwest 34,000  Level FlightAware
10:38PM 40.8220 -78.1800 236° Southwest 34,000  Level FlightAware
10:38PM 40.7790 -78.2660 237° Southwest 34,000  Level FlightAware
10:39PM 40.7230 -78.3750 236° Southwest 34,000  Level FlightAware
10:40PM 40.6730 -78.4730 236° Southwest 34,000  Level FlightAware
10:41PM 40.6360 -78.5460 236° Southwest 34,000  Level FlightAware
10:41PM 40.5840 -78.6470 236° Southwest 34,000  Level FlightAware
10:42PM 40.5420 -78.7280 236° Southwest 34,000  Level FlightAware
10:43PM 40.5030 -78.8050 236° Southwest 34,000  Level FlightAware
10:43PM 40.4630 -78.8830 236° Southwest 34,000  Level FlightAware
10:44PM 40.4100 -78.9850 236° Southwest 34,000  Level FlightAware
10:45PM 40.3610 -79.0790 236° Southwest 34,000  Level FlightAware
10:46PM 40.3220 -79.1530 235° Southwest 34,000  Level FlightAware
10:46PM 40.2770 -79.2410 236° Southwest 34,000  Level FlightAware
10:47PM 40.1970 -79.3920 235° Southwest 34,000  Level FlightAware
10:48PM 40.1570 -79.4690 236° Southwest 34,000  Level FlightAware
10:49PM 40.1070 -79.5640 235° Southwest 34,000  Level FlightAware
10:49PM 40.0620 -79.6490 235° Southwest 34,000  Level FlightAware
10:50PM 40.0203 -79.7264 235° Southwest 407 468 34,000  Level Indianapolis Center
10:51PM 39.9553 -79.8472 235° Southwest 407 468 34,000  Level Indianapolis Center
10:56PM 39.6160 -80.4800 235° Southwest 34,000  Level FlightAware
10:57PM 39.5640 -80.5750 235° Southwest 34,000  Level FlightAware
10:58PM 39.5210 -80.6540 235° Southwest 34,000  Level FlightAware
10:59PM 39.4700 -80.7460 234° Southwest 34,000  Level FlightAware
10:59PM 39.4270 -80.8260 235° Southwest 34,000  Level FlightAware
11:00PM 39.3830 -80.9050 234° Southwest 34,000  Level FlightAware
11:01PM 39.3360 -80.9890 234° Southwest 34,000  Level FlightAware
11:01PM 39.2920 -81.0690 235° Southwest 34,000  Level FlightAware
11:02PM 39.2410 -81.1620 235° Southwest 34,000  Level FlightAware
11:03PM 39.2030 -81.2300 234° Southwest 34,000  Level FlightAware
11:04PM 39.0860 -81.4390 234° Southwest 34,000  Level FlightAware
11:05PM 39.0440 -81.5140 234° Southwest 34,000  Level FlightAware
11:06PM 38.9920 -81.6060 234° Southwest 34,000  Level FlightAware
11:07PM 38.9490 -81.6830 234° Southwest 34,000  Level FlightAware
11:07PM 38.9030 -81.7630 234° Southwest 34,000  Level FlightAware
11:08PM 38.8560 -81.8480 235° Southwest 34,000  Level FlightAware
11:09PM 38.8110 -81.9260 234° Southwest 34,000  Level FlightAware
11:09PM 38.7600 -82.0150 234° Southwest 34,000  Level FlightAware
11:10PM 38.7170 -82.0950 235° Southwest 34,000  Level FlightAware
11:11PM 38.6750 -82.1760 236° Southwest 34,000  Level FlightAware
11:11PM 38.6330 -82.2560 236° Southwest 34,000  Level FlightAware
11:12PM 38.5920 -82.3350 236° Southwest 34,000  Level FlightAware
11:13PM 38.5290 -82.4540 236° Southwest 34,000  Level FlightAware
11:14PM 38.4710 -82.5640 236° Southwest 34,000  Level FlightAware
11:15PM 38.4210 -82.6570 236° Southwest 34,000  Level FlightAware
11:15PM 38.3780 -82.7370 236° Southwest 34,000  Level FlightAware
11:16PM 38.3320 -82.8240 236° Southwest 34,000  Level FlightAware
11:17PM 38.3010 -82.8800 235° Southwest 34,000  Level FlightAware
11:18PM 38.1830 -83.1002 236° Southwest 34,000  Level FlightAware ADS-B
11:19PM 38.1500 -83.1614 236° Southwest 413 475 34,000  Level FlightAware ADS-B
11:20PM 38.1114 -83.2324 235° Southwest 401 461 34,000  Level FlightAware ADS-B
11:20PM 38.0657 -83.3166 235° Southwest 398 458 34,000  Level FlightAware ADS-B
11:21PM 38.0273 -83.3876 236° Southwest 394 453 34,000  Level FlightAware ADS-B
11:22PM 37.9770 -83.4790 235° Southwest 34,000  Level FlightAware
11:23PM 37.9290 -83.5670 235° Southwest 34,000  Level FlightAware
11:24PM 37.8080 -83.7880 235° Southwest 34,000  Level FlightAware
11:25PM 37.7640 -83.8660 235° Southwest 34,000  Level FlightAware
11:26PM 37.7094 -83.9649 235° Southwest 363 418 34,000  Level FlightAware ADS-B
11:27PM 37.6785 -84.0210 235° Southwest 380 437 34,000  Level FlightAware ADS-B
11:27PM 37.6472 -84.0770 235° Southwest 379 436 34,000  Level FlightAware ADS-B
11:28PM 37.6163 -84.1320 235° Southwest 391 450 34,000  Level FlightAware ADS-B
11:28PM 37.5849 -84.1886 235° Southwest 384 442 34,000  Level FlightAware ADS-B
11:29PM 37.5542 -84.2433 235° Southwest 373 429 34,000  Level FlightAware ADS-B
11:29PM 37.5238 -84.2979 235° Southwest 381 438 34,000  Level FlightAware ADS-B
11:30PM 37.4580 -84.4150 235° Southwest 34,000  Level FlightAware
11:30PM 37.4462 -84.4361 235° Southwest 380 437 34,000  Level FlightAware ADS-B
11:31PM 37.4138 -84.4935 235° Southwest 385 443 34,000  Level FlightAware ADS-B
11:32PM 37.3770 -84.5570 234° Southwest 34,000  Level FlightAware
11:32PM 37.3530 -84.6011 236° Southwest 376 433 34,000  Level FlightAware ADS-B
11:32PM 37.3224 -84.6550 234° Southwest 380 437 34,000  Level FlightAware ADS-B
11:33PM 37.2866 -84.7181 235° Southwest 382 440 34,000  Level FlightAware ADS-B
11:34PM 37.2444 -84.7927 235° Southwest 381 438 34,000  Level FlightAware ADS-B
11:34PM 37.2117 -84.8500 234° Southwest 387 445 34,000  Level FlightAware ADS-B
11:35PM 37.1800 -84.9056 234° Southwest 381 438 34,000  Level FlightAware ADS-B
11:35PM 37.1486 -84.9605 234° Southwest 380 437 34,000  Level FlightAware ADS-B
11:36PM 37.1154 -85.0186 234° Southwest 385 443 34,000  Level FlightAware ADS-B
11:36PM 37.0772 -85.0857 235° Southwest 393 452 34,000  Level FlightAware ADS-B
11:37PM 37.0454 -85.1408 234° Southwest 390 449 34,000  Level FlightAware ADS-B
11:37PM 37.0131 -85.1968 234° Southwest 391 450 34,000  Level FlightAware ADS-B
11:38PM 36.9798 -85.2543 234° Southwest 385 443 34,000  Level FlightAware ADS-B
11:38PM 36.9486 -85.3088 234° Southwest 378 435 34,000  Level FlightAware ADS-B
11:40PM 36.8669 -85.4498 234° Southwest 379 436 34,000  Level FlightAware ADS-B
11:41PM 36.7992 -85.5658 234° Southwest 34,000  Level FlightAware ADS-B
11:42PM 36.7561 -85.6398 234° Southwest 380 437 34,000  Level FlightAware ADS-B
11:42PM 36.7254 -85.6925 234° Southwest 373 429 34,000  Level FlightAware ADS-B
11:43PM 36.6942 -85.7461 234° Southwest 375 432 34,000  Level FlightAware ADS-B
11:43PM 36.6622 -85.8005 234° Southwest 372 428 34,000  Level FlightAware ADS-B
11:44PM 36.6308 -85.8540 234° Southwest 379 436 34,000  Level FlightAware ADS-B
11:44PM 36.5994 -85.9074 234° Southwest 386 444 34,000  Level FlightAware ADS-B
11:45PM 36.5678 -85.9608 234° Southwest 382 440 34,000  Level FlightAware ADS-B
11:45PM 36.5352 -86.0164 234° Southwest 367 422 34,000  Level FlightAware ADS-B
11:46PM 36.5031 -86.0710 234° Southwest 377 434 34,000  Level FlightAware ADS-B
11:46PM 36.4705 -86.1263 234° Southwest 361 415 34,000  Level FlightAware ADS-B
11:47PM 36.4340 -86.1870 233° Southwest 34,000  Level FlightAware
11:48PM 36.3870 -86.2670 234° Southwest 34,000  Level FlightAware
11:48PM 36.3470 -86.3340 233° Southwest 34,000  Level FlightAware
11:49PM 36.3070 -86.4020 234° Southwest 34,000  Level FlightAware
11:50PM 36.2630 -86.4740 233° Southwest 34,000  Level FlightAware
11:50PM 36.2230 -86.5420 234° Southwest 34,000  Level FlightAware
11:51PM 36.1760 -86.6200 233° Southwest 34,000  Level FlightAware
11:52PM 36.1400 -86.6900 238° Southwest 34,000  Level FlightAware
11:52PM 36.1098 -86.7656 244° Southwest 369 425 34,000  Level FlightAware ADS-B
11:53PM 36.0889 -86.8323 249° West 365 420 34,000  Level FlightAware ADS-B
11:54PM 36.0662 -86.9070 249° West 368 423 34,000  Level FlightAware ADS-B
11:54PM 36.0357 -87.0031 249° West 365 420 34,000 -120 Level FlightAware ADS-B
11:55PM 36.0060 -87.0970 249° West 34,000 -120 Level FlightAware
11:56PM 35.9810 -87.1730 248° West 34,000 -120 Level FlightAware
11:57PM 35.9540 -87.2580 249° West 34,000 -120 Level FlightAware
11:57PM 35.9290 -87.3360 248° West 34,000 -120 Level FlightAware
11:58PM 35.9010 -87.4230 248° West 34,000 -180 Level FlightAware
11:59PM 35.8750 -87.5020 248° West 34,000 -180 Level FlightAware
11:59PM 35.8520 -87.5730 248° West 34,000 -240 Level FlightAware
12:00AM 35.8230 -87.6620 248° West 34,000 -240 Level FlightAware
12:01AM 35.7980 -87.7390 248° West 34,000 -360 Level FlightAware
12:02AM 35.7640 -87.8420 248° West 33,700 -540 Descending FlightAware
12:02AM 35.7500 -87.8758 248° West 367 422 33,400 -1,080 Descending Memphis Center
12:03AM 35.7147 -87.9919 250° West 367 422 32,400 -1,080 Descending Memphis Center
12:04AM 35.6731 -88.1081 246° West 372 428 31,300 -1,140 Descending Memphis Center
12:05AM 35.6436 -88.2111 251° West 354 407 30,200 -1,320 Descending Memphis Center
12:06AM 35.6078 -88.3092 246° West 330 380 28,700 -1,500 Descending Memphis Center
12:07AM 35.5611 -88.3969 237° Southwest 317 365 27,300 -1,680 Descending Memphis Center
12:08AM 35.4958 -88.4853 228° Southwest 330 380 25,400 -2,040 Descending Memphis Center
12:09AM 35.4264 -88.5761 227° Southwest 351 404 23,300 -2,040 Descending Memphis Center
12:10AM 35.3544 -88.6667 226° Southwest 366 421 21,400 -2,100 Descending Memphis Center
12:11AM 35.2847 -88.7572 227° Southwest 371 427 19,200 -2,340 Descending Memphis Center
12:12AM 35.2131 -88.8450 225° Southwest 371 427 16,800 -2,100 Descending Memphis Center
12:13AM 35.1472 -88.9272 226° Southwest 357 411 15,100 -1,860 Descending Memphis Center
12:14AM 35.0894 -88.9969 225° Southwest 317 365 13,100 -2,160 Descending Memphis Center
12:15AM 35.0403 -89.0739 232° Southwest 293 337 10,800 -2,100 Descending Memphis Center
12:16AM 35.0369 -89.1675 268° West 267 307 8,900 -1,800 Descending Memphis Center
12:17AM 35.0400 -89.2486 273° West 273 314 7,200 -1,800 Descending Memphis Center
12:18AM 35.0386 -89.3450 269° West 273 314 5,400 -1,200 Descending Memphis Center
12:19AM 35.0394 -89.4339 271° West 268 308 4,800 -600 Descending Memphis Center
12:20AM 35.0483 -89.5225 277° West 274 315 4,300 -480 Descending Memphis Center
12:21AM 35.0508 -89.6139 272° West 274 315 3,900 -480 Descending Memphis Center
12:22AM 35.0514 -89.6975 270° West 261 300 3,400 -480 Descending Memphis Center
12:23AM 35.0561 -89.7661 275° West 220 253 3,000 -600 Descending Memphis Center
12:24AM 35.0564 -89.8244 270° West 187 215 2,300 -840 Descending Memphis Center
12:25AM 35.0586 -89.8828 273° West 174 200 1,400 -780 Descending Memphis Center
12:26AM 35.0500 -89.9000 239° Southwest 132 152 1,100 -540 Descending KMEM
12:28AM 35.0333 -89.9667 270° West  Level FlightAware Approximate
12:35AM 35.0424 -89.9767 270° West  Level Estimated